createdAt,value
2022-09-07T00:00:07.900Z,97720.50
2022-09-07T00:05:09.991Z,97720.72
2022-09-07T00:10:11.779Z,97717.84
2022-09-07T00:15:13.770Z,97715.94
2022-09-07T00:20:17.086Z,97710.69
2022-09-07T00:25:18.879Z,97696.03
2022-09-07T00:30:20.683Z,97693.38
2022-09-07T00:35:22.504Z,97690.94
2022-09-07T00:40:24.353Z,97684.50
2022-09-07T00:45:26.192Z,97681.97
2022-09-07T00:50:33.852Z,97686.78
2022-09-07T00:55:37.655Z,97684.94
2022-09-07T01:00:44.834Z,97688.16
2022-09-07T01:05:53.775Z,97674.94
2022-09-07T01:10:58.050Z,97671.91
2022-09-07T01:16:13.155Z,97668.28
2022-09-07T01:21:22.452Z,97670.28
2022-09-07T01:26:54.546Z,97677.47
2022-09-07T01:31:56.317Z,97682.81
2022-09-07T01:37:01.000Z,97684.38
2022-09-07T01:42:18.988Z,97692.00
2022-09-07T01:47:25.821Z,97684.59
2022-09-07T01:52:33.573Z,97672.50
2022-09-07T01:57:43.690Z,97678.72
2022-09-07T02:03:04.689Z,97671.94
2022-09-07T02:08:12.966Z,97674.94
2022-09-07T02:13:21.731Z,97677.72
2022-09-07T02:18:27.269Z,97673.06
2022-09-07T02:23:33.206Z,97671.22
2022-09-07T02:28:36.720Z,97664.75
2022-09-07T02:33:38.895Z,97661.09
2022-09-07T02:38:40.770Z,97671.66
2022-09-07T02:43:42.589Z,97663.34
2022-09-07T02:49:04.061Z,97666.06
2022-09-07T02:54:05.857Z,97659.75
2022-09-07T02:59:17.558Z,97666.69
2022-09-07T03:04:29.025Z,97673.09
2022-09-07T03:09:37.535Z,97678.47
2022-09-07T03:14:41.699Z,97667.63
2022-09-07T03:19:43.532Z,97660.97
2022-09-07T03:24:45.705Z,97668.81
2022-09-07T03:29:47.482Z,97675.25
2022-09-07T03:34:49.283Z,97675.66
2022-09-07T03:39:51.128Z,97661.13
2022-09-07T03:44:53.020Z,97658.94
2022-09-07T03:49:54.845Z,97650.19
2022-09-07T03:54:56.658Z,97653.28
2022-09-07T03:59:58.514Z,97648.16
2022-09-07T04:05:00.313Z,97662.06
2022-09-07T04:10:02.381Z,97663.53
2022-09-07T04:15:04.473Z,97665.41
2022-09-07T04:20:06.929Z,97667.53
2022-09-07T04:25:08.971Z,97658.13
2022-09-07T04:30:11.444Z,97659.41
2022-09-07T04:35:13.930Z,97663.66
2022-09-07T04:40:15.871Z,97653.69
2022-09-07T04:45:17.734Z,97651.72
2022-09-07T04:50:19.545Z,97650.16
2022-09-07T04:55:21.785Z,97641.56
2022-09-07T05:00:23.706Z,97638.59
2022-09-07T05:05:25.632Z,97638.81
2022-09-07T05:10:27.495Z,97639.44
2022-09-07T05:15:30.639Z,97641.50
2022-09-07T05:20:32.844Z,97639.25
2022-09-07T05:25:34.945Z,97635.25
2022-09-07T05:35:59.718Z,97646.94
2022-09-07T05:41:02.096Z,97632.66
2022-09-07T05:46:04.201Z,97637.06
2022-09-07T05:51:07.085Z,97626.22
2022-09-07T05:56:09.619Z,97624.63
2022-09-07T06:01:12.618Z,97628.31
2022-09-07T06:06:17.571Z,97628.75
2022-09-07T06:11:22.288Z,97631.75
2022-09-07T06:16:24.153Z,97637.31
2022-09-07T06:21:26.069Z,97636.97
2022-09-07T06:26:27.867Z,97632.47
2022-09-07T06:31:30.046Z,97634.41
2022-09-07T06:36:31.886Z,97631.59
2022-09-07T06:52:04.259Z,97624.69
2022-09-07T06:57:09.262Z,97622.00
2022-09-07T07:02:15.102Z,97617.97
2022-09-07T07:07:17.037Z,97616.00
2022-09-07T07:17:19.537Z,97622.59
2022-09-07T07:22:45.555Z,97618.91
2022-09-07T07:27:45.999Z,97617.69
2022-09-07T07:32:48.439Z,97617.41
2022-09-07T07:43:15.802Z,97630.66
2022-09-07T07:48:17.617Z,97631.91
2022-09-07T07:58:45.401Z,97627.97
2022-09-07T08:03:47.374Z,97627.19
2022-09-07T08:08:49.217Z,97623.75
2022-09-07T08:13:51.250Z,97629.59
2022-09-07T08:18:53.761Z,97623.88
2022-09-07T08:23:55.668Z,97629.22
2022-09-07T08:28:58.778Z,97627.00
2022-09-07T08:34:00.547Z,97627.78
2022-09-07T08:39:02.625Z,97624.59
2022-09-07T08:44:18.491Z,97625.88
2022-09-07T08:49:30.278Z,97628.06
2022-09-07T08:54:33.191Z,97621.56
2022-09-07T08:59:42.995Z,97621.06
2022-09-07T09:10:09.667Z,97624.00
2022-09-07T09:15:21.311Z,97623.47
2022-09-07T09:20:47.721Z,97629.31
2022-09-07T09:25:59.586Z,97632.22
2022-09-07T09:31:01.496Z,97630.44
2022-09-07T09:36:03.315Z,97624.53
2022-09-07T09:41:23.779Z,97625.53
2022-09-07T09:46:27.315Z,97622.59
2022-09-07T09:56:54.904Z,97619.09
2022-09-07T10:07:27.417Z,97614.50
2022-09-07T10:12:32.879Z,97610.63
2022-09-07T10:17:47.666Z,97612.16
2022-09-07T10:22:52.174Z,97605.72
2022-09-07T10:28:08.435Z,97599.13
2022-09-07T10:33:33.721Z,97599.69
2022-09-07T10:38:44.868Z,97598.44
2022-09-07T10:43:50.154Z,97603.28
2022-09-07T10:49:40.009Z,97611.16
2022-09-07T10:54:53.402Z,97603.41
2022-09-07T11:00:16.190Z,97603.28
2022-09-07T11:05:20.611Z,97602.94
2022-09-07T11:10:42.029Z,97596.06
2022-09-07T11:15:56.817Z,97595.69
2022-09-07T11:21:01.778Z,97591.84
2022-09-07T11:26:12.440Z,97591.22
2022-09-07T11:31:23.324Z,97580.75
2022-09-07T11:36:28.936Z,97577.59
2022-09-07T11:41:36.996Z,97581.03
2022-09-07T11:46:48.966Z,97576.53
2022-09-07T11:51:53.560Z,97572.09
2022-09-07T11:57:15.820Z,97564.69
2022-09-07T12:02:59.782Z,97558.59
2022-09-07T12:08:10.966Z,97556.72
2022-09-07T12:13:34.857Z,97556.53
2022-09-07T12:19:07.434Z,97557.34
2022-09-07T12:24:43.166Z,97556.66
2022-09-07T12:29:45.723Z,97550.13
2022-09-07T12:34:53.588Z,97556.13
2022-09-07T12:40:29.227Z,97548.75
2022-09-07T12:45:30.956Z,97545.81
2022-09-07T12:50:55.534Z,97547.78
2022-09-07T12:56:17.482Z,97545.22
2022-09-07T13:01:28.472Z,97541.75
2022-09-07T13:07:05.599Z,97547.16
2022-09-07T13:12:57.910Z,97548.06
2022-09-07T13:17:59.739Z,97536.03
2022-09-07T13:23:21.544Z,97544.06
2022-09-07T13:28:28.790Z,97531.78
2022-09-07T13:33:30.345Z,97519.03
2022-09-07T13:38:36.396Z,97524.72
2022-09-07T13:43:38.089Z,97521.50
2022-09-07T13:49:01.124Z,97518.69
2022-09-07T13:54:36.993Z,97509.69
2022-09-07T13:59:42.467Z,97510.28
2022-09-07T14:04:49.189Z,97503.16
2022-09-07T14:10:20.645Z,97493.00
2022-09-07T14:15:34.581Z,97501.69
2022-09-07T14:20:43.757Z,97490.44
2022-09-07T14:31:16.394Z,97488.44
2022-09-07T14:41:43.273Z,97473.22
2022-09-07T14:46:50.582Z,97467.31
2022-09-07T14:51:55.325Z,97465.31
2022-09-07T14:57:10.536Z,97471.56
2022-09-07T15:02:18.238Z,97468.38
2022-09-07T15:07:37.283Z,97472.63
2022-09-07T15:12:42.213Z,97465.75
2022-09-07T15:17:44.782Z,97466.91
2022-09-07T15:22:46.443Z,97454.22
2022-09-07T15:27:48.023Z,97443.38
2022-09-07T15:32:49.607Z,97431.91
2022-09-07T15:38:59.428Z,97430.63
2022-09-07T15:43:20.317Z,97430.31
2022-09-07T15:48:25.179Z,97425.06
2022-09-07T15:58:53.137Z,97413.16
2022-09-07T16:03:57.003Z,97409.13
2022-09-07T16:08:58.626Z,97412.59
2022-09-07T16:14:02.380Z,97411.34
2022-09-07T16:19:07.307Z,97424.31
2022-09-07T16:24:10.354Z,97451.22
2022-09-07T16:29:12.159Z,97454.69
2022-09-07T16:34:18.283Z,97455.56
2022-09-07T16:39:20.349Z,97431.19
2022-09-07T16:44:21.878Z,97434.63
2022-09-07T16:49:23.534Z,97430.41
2022-09-07T16:54:25.032Z,97405.72
2022-09-07T16:59:26.815Z,97409.13
2022-09-07T17:04:29.075Z,97406.75
2022-09-07T17:09:30.713Z,97407.03
2022-09-07T17:14:32.229Z,97433.84
2022-09-07T17:19:34.456Z,97447.09
2022-09-07T17:24:36.179Z,97441.16
2022-09-07T17:29:37.937Z,97434.94
2022-09-07T17:34:39.475Z,97443.34
2022-09-07T17:39:41.221Z,97440.75
2022-09-07T17:44:42.893Z,97445.81
2022-09-07T17:49:44.982Z,97450.47
2022-09-07T17:54:47.299Z,97452.94
2022-09-07T18:05:11.518Z,97461.09
2022-09-07T18:10:13.232Z,97465.91
2022-09-07T18:15:14.900Z,97469.88
2022-09-07T18:20:17.004Z,97478.63
2022-09-07T18:25:18.602Z,97491.94
2022-09-07T18:30:20.253Z,97496.16
2022-09-07T18:35:22.514Z,97502.25
2022-09-07T18:40:24.099Z,97502.09
2022-09-07T18:45:27.509Z,97488.59
2022-09-07T18:50:29.452Z,97479.31
2022-09-07T18:55:32.232Z,97477.22
2022-09-07T19:00:33.862Z,97464.53
2022-09-07T19:05:51.419Z,97460.78
2022-09-07T19:10:54.157Z,97455.50
2022-09-07T19:16:07.452Z,97449.09
2022-09-07T19:21:14.744Z,97440.56
2022-09-07T19:26:18.283Z,97442.22
2022-09-07T19:31:19.980Z,97432.00
2022-09-07T19:36:21.887Z,97418.91
2022-09-07T19:41:23.774Z,97408.63
2022-09-07T19:46:25.770Z,97413.91
2022-09-07T19:51:27.747Z,97409.00
2022-09-07T19:56:29.245Z,97414.03
2022-09-07T20:01:31.142Z,97404.59
2022-09-07T20:06:34.278Z,97403.13
2022-09-07T20:11:36.382Z,97410.81
2022-09-07T20:16:39.912Z,97411.16
2022-09-07T20:21:42.049Z,97407.59
2022-09-07T20:26:43.544Z,97412.41
2022-09-07T20:31:45.780Z,97410.00
2022-09-07T20:36:52.321Z,97402.22
2022-09-07T20:41:54.021Z,97396.94
2022-09-07T20:46:55.679Z,97390.88
2022-09-07T20:51:57.306Z,97394.72
2022-09-07T20:57:03.266Z,97390.22
2022-09-07T21:02:05.646Z,97392.13
2022-09-07T21:07:07.200Z,97393.38
2022-09-07T21:12:08.721Z,97401.56
2022-09-07T21:17:10.286Z,97407.72
2022-09-07T21:22:11.900Z,97400.25
2022-09-07T21:27:13.409Z,97397.59
2022-09-07T21:32:14.920Z,97396.44
2022-09-07T21:37:16.768Z,97383.19
2022-09-07T21:42:18.283Z,97379.44
2022-09-07T21:47:19.832Z,97382.66
2022-09-07T21:52:21.340Z,97379.91
2022-09-07T21:57:23.439Z,97374.50
2022-09-07T22:02:25.054Z,97368.91
2022-09-07T22:07:26.606Z,97362.97
2022-09-07T22:12:28.619Z,97358.03
2022-09-07T22:17:44.474Z,97348.13
2022-09-07T22:22:47.789Z,97355.28
2022-09-07T22:27:49.636Z,97353.22
2022-09-07T22:32:51.920Z,97357.75
2022-09-07T22:37:53.496Z,97351.41
2022-09-07T22:42:55.067Z,97351.25
2022-09-07T22:47:57.345Z,97355.31
2022-09-07T22:52:59.202Z,97352.75
2022-09-07T22:58:00.706Z,97355.47
2022-09-07T23:03:03.768Z,97357.66
2022-09-07T23:08:05.814Z,97348.84
2022-09-07T23:13:09.032Z,97357.97
2022-09-07T23:18:19.340Z,97348.09
2022-09-07T23:23:20.924Z,97350.41
2022-09-07T23:28:22.555Z,97338.38
2022-09-07T23:33:26.122Z,97326.72
2022-09-07T23:38:28.444Z,97328.97
2022-09-07T23:43:31.360Z,97331.41
2022-09-07T23:48:33.044Z,97329.59
2022-09-07T23:53:35.045Z,97324.53
2022-09-07T23:58:36.714Z,97329.44
